createdAt,value
2022-08-30T00:02:01.673Z,3.27
2022-08-30T00:04:28.143Z,3.43
2022-08-30T00:06:54.603Z,3.83
2022-08-30T00:09:21.041Z,3.67
2022-08-30T00:11:50.122Z,3.93
2022-08-30T00:14:16.558Z,3.67
2022-08-30T00:16:42.972Z,3.63
2022-08-30T00:19:09.412Z,3.87
2022-08-30T00:21:35.861Z,3.57
2022-08-30T00:24:02.636Z,3.23
2022-08-30T00:26:29.117Z,3.40
2022-08-30T00:28:55.519Z,3.57
2022-08-30T00:31:22.017Z,3.07
2022-08-30T00:33:48.488Z,2.83
2022-08-30T00:36:16.032Z,3.43
2022-08-30T00:38:42.433Z,2.77
2022-08-30T00:41:08.885Z,2.80
2022-08-30T00:43:36.788Z,2.63
2022-08-30T00:46:07.692Z,2.90
2022-08-30T00:48:38.778Z,3.03
2022-08-30T00:51:09.425Z,3.00
2022-08-30T00:53:39.159Z,2.67
2022-08-30T00:56:07.037Z,2.93
2022-08-30T00:58:37.194Z,2.63
2022-08-30T01:01:06.829Z,2.60
2022-08-30T01:03:34.989Z,2.40
2022-08-30T01:06:04.480Z,3.10
2022-08-30T01:08:31.192Z,2.70
2022-08-30T01:10:58.056Z,2.30
2022-08-30T01:13:26.120Z,2.90
2022-08-30T01:15:53.829Z,2.47
2022-08-30T01:18:23.247Z,2.77
2022-08-30T01:21:00.438Z,2.47
2022-08-30T01:23:28.766Z,2.40
2022-08-30T01:25:57.101Z,2.60
2022-08-30T01:28:26.069Z,2.60
2022-08-30T01:30:53.450Z,2.27
2022-08-30T01:33:21.503Z,2.63
2022-08-30T01:35:53.719Z,2.20
2022-08-30T01:38:23.752Z,2.80
2022-08-30T01:40:50.613Z,2.77
2022-08-30T01:43:18.477Z,2.90
2022-08-30T01:45:46.132Z,2.23
2022-08-30T01:48:12.911Z,2.53
2022-08-30T01:50:41.347Z,2.80
2022-08-30T01:53:08.888Z,3.07
2022-08-30T01:55:40.331Z,2.83
2022-08-30T01:58:06.898Z,2.70
2022-08-30T02:00:33.651Z,2.73
2022-08-30T02:03:00.129Z,3.07
2022-08-30T02:05:26.557Z,3.27
2022-08-30T02:07:53.819Z,3.17
2022-08-30T02:10:20.826Z,3.10
2022-08-30T02:12:47.607Z,3.20
2022-08-30T02:15:14.220Z,3.30
2022-08-30T02:17:41.687Z,2.93
2022-08-30T02:20:08.945Z,3.60
2022-08-30T02:22:35.476Z,3.00
2022-08-30T02:25:01.951Z,3.37
2022-08-30T02:27:28.388Z,3.43
2022-08-30T02:29:54.961Z,3.23
2022-08-30T02:32:21.446Z,3.47
2022-08-30T02:34:47.935Z,3.40
2022-08-30T02:37:16.880Z,3.50
2022-08-30T02:39:43.780Z,3.80
2022-08-30T02:42:10.231Z,3.60
2022-08-30T02:44:36.651Z,3.67
2022-08-30T02:47:03.659Z,3.77
2022-08-30T02:49:33.693Z,4.27
2022-08-30T02:52:02.003Z,4.33
2022-08-30T02:54:28.570Z,4.17
2022-08-30T02:56:56.388Z,4.17
2022-08-30T02:59:22.860Z,4.50
2022-08-30T03:01:49.736Z,4.50
2022-08-30T03:04:16.291Z,4.00
2022-08-30T03:06:42.699Z,3.93
2022-08-30T03:09:09.149Z,4.00
2022-08-30T03:11:35.616Z,4.27
2022-08-30T03:14:02.022Z,3.90
2022-08-30T03:16:28.563Z,4.73
2022-08-30T03:18:55.190Z,4.63
2022-08-30T03:21:21.717Z,4.27
2022-08-30T03:23:48.163Z,4.30
2022-08-30T03:26:15.034Z,4.20
2022-08-30T03:28:43.132Z,4.20
2022-08-30T03:31:10.112Z,4.30
2022-08-30T03:33:37.565Z,4.60
2022-08-30T03:36:04.236Z,4.30
2022-08-30T03:38:31.156Z,3.97
2022-08-30T03:40:57.567Z,4.63
2022-08-30T03:43:25.310Z,4.63
2022-08-30T03:45:52.317Z,3.93
2022-08-30T03:48:18.754Z,4.33
2022-08-30T03:50:45.200Z,4.00
2022-08-30T03:53:11.625Z,4.37
2022-08-30T03:55:38.011Z,4.17
2022-08-30T03:58:04.659Z,4.47
2022-08-30T04:00:31.297Z,4.43
2022-08-30T04:02:57.739Z,4.20
2022-08-30T04:05:24.122Z,4.40
2022-08-30T04:07:50.608Z,4.70
2022-08-30T04:10:17.042Z,4.13
2022-08-30T04:12:48.904Z,4.70
2022-08-30T04:15:18.429Z,5.00
2022-08-30T04:17:45.218Z,4.10
2022-08-30T04:20:11.750Z,4.07
2022-08-30T04:22:38.674Z,4.47
2022-08-30T04:25:06.224Z,4.50
2022-08-30T04:27:32.763Z,4.50
2022-08-30T04:29:59.922Z,4.23
2022-08-30T04:32:26.840Z,4.57
2022-08-30T04:34:58.543Z,5.03
2022-08-30T04:37:25.215Z,4.10
2022-08-30T04:39:56.137Z,3.90
2022-08-30T04:42:22.573Z,4.00
2022-08-30T04:44:49.389Z,4.60
2022-08-30T04:47:15.768Z,5.00
2022-08-30T04:49:42.217Z,4.20
2022-08-30T04:52:10.848Z,4.30
2022-08-30T04:54:37.316Z,4.70
2022-08-30T04:57:06.045Z,4.70
2022-08-30T04:59:33.397Z,4.57
2022-08-30T05:02:00.368Z,4.77
2022-08-30T05:04:26.855Z,4.83
2022-08-30T05:06:53.878Z,4.50
2022-08-30T05:09:21.578Z,4.67
2022-08-30T05:11:48.122Z,4.67
2022-08-30T05:14:14.814Z,4.97
2022-08-30T05:16:41.814Z,4.93
2022-08-30T05:19:08.335Z,4.30
2022-08-30T05:21:35.399Z,5.07
2022-08-30T05:24:01.983Z,5.30
2022-08-30T05:26:32.040Z,5.10
2022-08-30T05:28:58.925Z,4.63
2022-08-30T05:31:31.974Z,5.30
2022-08-30T05:33:59.374Z,4.73
2022-08-30T05:36:28.382Z,5.50
2022-08-30T05:38:55.817Z,5.07
2022-08-30T05:41:26.671Z,5.13
2022-08-30T05:43:59.034Z,5.50
2022-08-30T05:46:28.891Z,5.70
2022-08-30T05:48:56.969Z,4.77
2022-08-30T05:51:25.339Z,4.83
2022-08-30T05:53:53.419Z,5.17
2022-08-30T05:56:24.749Z,5.40
2022-08-30T05:58:52.799Z,5.43
2022-08-30T06:01:34.409Z,5.43
2022-08-30T06:04:04.137Z,5.00
2022-08-30T06:06:32.535Z,5.50
2022-08-30T06:08:59.023Z,5.13
2022-08-30T06:11:26.183Z,5.17
2022-08-30T06:13:53.981Z,5.10
2022-08-30T06:16:23.495Z,5.67
2022-08-30T06:18:50.457Z,5.20
2022-08-30T06:21:29.089Z,5.03
2022-08-30T06:23:56.747Z,5.67
2022-08-30T06:26:23.311Z,5.30
2022-08-30T06:28:50.725Z,5.17
2022-08-30T06:31:19.114Z,5.17
2022-08-30T06:33:46.567Z,4.53
2022-08-30T06:36:19.126Z,4.70
2022-08-30T06:38:47.280Z,5.10
2022-08-30T06:41:19.444Z,4.50
2022-08-30T06:43:49.046Z,3.87
2022-08-30T06:46:28.099Z,4.57
2022-08-30T06:48:56.379Z,4.10
2022-08-30T06:51:26.387Z,4.40
2022-08-30T06:53:53.593Z,4.03
2022-08-30T06:56:22.143Z,3.87
2022-08-30T06:58:49.457Z,3.80
2022-08-30T07:01:21.752Z,3.83
2022-08-30T07:03:49.175Z,2.87
2022-08-30T07:06:16.174Z,2.90
2022-08-30T07:08:45.874Z,2.50
2022-08-30T07:11:12.343Z,3.23
2022-08-30T07:13:39.136Z,2.50
2022-08-30T07:16:13.597Z,2.33
2022-08-30T07:18:54.812Z,2.50
2022-08-30T07:21:31.607Z,2.37
2022-08-30T07:23:59.631Z,1.83
2022-08-30T07:26:34.715Z,1.70
2022-08-30T07:29:01.870Z,1.60
2022-08-30T07:31:29.196Z,1.20
2022-08-30T07:33:55.886Z,1.47
2022-08-30T07:36:22.763Z,1.13
2022-08-30T07:38:50.843Z,1.37
2022-08-30T07:41:29.898Z,1.03
2022-08-30T07:43:56.598Z,1.23
2022-08-30T07:46:24.399Z,1.07
2022-08-30T07:48:51.346Z,1.20
2022-08-30T07:51:20.217Z,1.00
2022-08-30T07:53:46.772Z,1.03
2022-08-30T07:56:13.391Z,0.80
2022-08-30T07:58:39.882Z,1.17
2022-08-30T08:01:08.475Z,1.00
2022-08-30T08:03:35.634Z,0.90
2022-08-30T08:06:04.428Z,0.80
2022-08-30T08:08:31.485Z,1.10
2022-08-30T08:10:58.021Z,0.70
2022-08-30T08:13:28.030Z,0.80
2022-08-30T08:15:59.151Z,0.83
2022-08-30T08:18:25.627Z,1.00
2022-08-30T08:20:52.055Z,1.23
2022-08-30T08:23:21.761Z,1.00
2022-08-30T08:25:48.272Z,1.10
2022-08-30T08:28:14.683Z,1.03
2022-08-30T08:30:45.094Z,0.80
2022-08-30T08:33:14.253Z,0.90
2022-08-30T08:35:41.030Z,0.90
2022-08-30T08:38:07.663Z,1.20
2022-08-30T08:40:56.940Z,0.87
2022-08-30T08:43:26.693Z,1.13
2022-08-30T08:46:12.025Z,1.00
2022-08-30T08:48:58.542Z,1.10
2022-08-30T08:51:47.461Z,1.00
2022-08-30T08:54:21.247Z,0.90
2022-08-30T08:56:47.998Z,1.20
2022-08-30T08:59:16.288Z,1.27
2022-08-30T09:01:42.888Z,1.00
2022-08-30T09:04:17.487Z,0.90
2022-08-30T09:06:55.279Z,1.00
2022-08-30T09:09:29.518Z,1.20
2022-08-30T09:11:56.012Z,1.13
2022-08-30T09:14:33.483Z,0.80
2022-08-30T09:17:02.916Z,0.90
2022-08-30T09:19:44.088Z,1.10
2022-08-30T09:22:11.006Z,1.10
2022-08-30T09:24:50.546Z,0.90
2022-08-30T09:27:24.967Z,1.10
2022-08-30T09:30:06.174Z,1.10
2022-08-30T09:32:44.419Z,1.10
2022-08-30T09:35:18.160Z,0.97
2022-08-30T09:37:56.597Z,0.87
2022-08-30T09:40:44.340Z,1.00
2022-08-30T09:43:24.286Z,1.10
2022-08-30T09:46:01.321Z,0.73
2022-08-30T09:48:44.876Z,0.93
2022-08-30T09:51:11.660Z,1.10
2022-08-30T09:54:01.065Z,1.00
2022-08-30T09:57:11.600Z,0.80
2022-08-30T10:00:01.981Z,1.00
2022-08-30T10:02:34.218Z,0.93
2022-08-30T10:05:20.636Z,0.90
2022-08-30T10:08:18.734Z,0.90
2022-08-30T10:10:57.543Z,1.17
2022-08-30T10:13:38.749Z,0.80
2022-08-30T10:16:39.327Z,0.97
2022-08-30T10:19:23.562Z,1.20
2022-08-30T10:22:09.418Z,0.80
2022-08-30T10:24:42.579Z,1.13
2022-08-30T10:27:18.158Z,1.00
2022-08-30T10:29:54.895Z,1.00
2022-08-30T10:32:43.940Z,0.90
2022-08-30T10:35:19.314Z,1.17
2022-08-30T10:37:58.782Z,0.90
2022-08-30T10:40:56.297Z,0.80
2022-08-30T10:44:01.109Z,1.40
2022-08-30T10:46:27.452Z,1.00
2022-08-30T10:48:56.150Z,1.03
2022-08-30T10:51:31.616Z,1.00
2022-08-30T10:54:10.571Z,0.77
2022-08-30T10:56:43.080Z,0.90
2022-08-30T10:59:11.997Z,0.87
2022-08-30T11:02:19.679Z,1.13
2022-08-30T11:05:15.277Z,1.17
2022-08-30T11:07:52.227Z,0.90
2022-08-30T11:10:38.719Z,1.25
2022-08-30T11:13:25.147Z,1.03
2022-08-30T11:15:58.279Z,0.87
2022-08-30T11:18:28.052Z,1.63
2022-08-30T11:21:23.692Z,1.23
2022-08-30T11:24:21.910Z,1.30
2022-08-30T11:26:48.466Z,1.30
2022-08-30T11:29:27.557Z,1.33
2022-08-30T11:31:59.679Z,0.93
2022-08-30T11:34:45.450Z,1.10
2022-08-30T11:37:41.965Z,1.07
2022-08-30T11:40:13.314Z,1.10
2022-08-30T11:42:48.202Z,1.13
2022-08-30T11:45:26.730Z,1.10
2022-08-30T11:47:56.083Z,1.10
2022-08-30T11:50:48.285Z,1.40
2022-08-30T11:53:37.757Z,1.00
2022-08-30T11:56:12.403Z,1.10
2022-08-30T11:58:50.964Z,1.00
2022-08-30T12:01:50.291Z,1.00
2022-08-30T12:04:18.001Z,1.17
2022-08-30T12:06:46.624Z,1.07
2022-08-30T12:09:25.083Z,1.10
2022-08-30T12:12:02.722Z,0.93
2022-08-30T12:14:36.375Z,0.93
2022-08-30T12:17:40.231Z,1.10
2022-08-30T12:20:29.314Z,1.00
2022-08-30T12:22:56.797Z,1.07
2022-08-30T12:25:32.495Z,1.10
2022-08-30T12:28:21.554Z,0.90
2022-08-30T12:30:49.485Z,1.03
2022-08-30T12:33:36.562Z,1.10
2022-08-30T12:36:13.336Z,1.10
2022-08-30T12:38:41.412Z,1.00
2022-08-30T12:41:08.583Z,1.00
2022-08-30T12:43:41.410Z,1.17
2022-08-30T12:46:12.459Z,0.80
2022-08-30T12:48:42.407Z,0.87
2022-08-30T12:51:27.413Z,1.03
2022-08-30T12:53:53.961Z,1.23
2022-08-30T12:56:35.119Z,1.37
2022-08-30T12:59:07.533Z,1.10
2022-08-30T13:01:36.226Z,1.20
2022-08-30T13:04:25.866Z,1.13
2022-08-30T13:07:01.388Z,1.20
2022-08-30T13:09:33.862Z,1.40
2022-08-30T13:12:02.811Z,1.87
2022-08-30T13:14:38.157Z,1.17
2022-08-30T13:17:28.820Z,1.27
2022-08-30T13:20:05.671Z,1.30
2022-08-30T13:22:33.890Z,1.20
2022-08-30T13:25:01.629Z,1.50
2022-08-30T13:27:29.161Z,1.10
2022-08-30T13:29:57.410Z,1.30
2022-08-30T13:32:24.653Z,1.13
2022-08-30T13:34:51.317Z,1.77
2022-08-30T13:40:13.929Z,1.43
2022-08-30T13:42:42.815Z,1.20
2022-08-30T13:47:57.701Z,1.20
2022-08-30T13:50:24.261Z,1.43
2022-08-30T13:52:52.207Z,1.67
2022-08-30T13:55:18.727Z,1.60
2022-08-30T13:57:54.494Z,1.23
2022-08-30T14:00:22.865Z,1.43
2022-08-30T14:02:54.411Z,1.47
2022-08-30T14:11:18.630Z,1.50
2022-08-30T14:16:33.227Z,1.30
2022-08-30T14:19:00.562Z,1.20
2022-08-30T14:21:27.572Z,1.33
2022-08-30T14:23:56.814Z,1.10
2022-08-30T14:26:32.866Z,1.20
2022-08-30T14:29:01.953Z,1.00
2022-08-30T14:31:29.975Z,1.20
2022-08-30T14:33:59.417Z,1.00
2022-08-30T14:36:25.870Z,1.40
2022-08-30T14:38:52.421Z,1.27
2022-08-30T14:41:19.072Z,1.10
2022-08-30T14:43:45.828Z,0.93
2022-08-30T14:46:13.793Z,0.93
2022-08-30T14:48:41.625Z,1.20
2022-08-30T14:51:18.084Z,1.10
2022-08-30T14:53:45.418Z,1.30
2022-08-30T14:56:14.900Z,1.10
2022-08-30T14:58:41.634Z,1.67
2022-08-30T15:01:09.874Z,1.13
2022-08-30T15:03:38.264Z,1.03
2022-08-30T15:06:05.984Z,1.30
2022-08-30T15:08:33.706Z,1.27
2022-08-30T15:11:01.262Z,1.17
2022-08-30T15:13:29.618Z,1.00
2022-08-30T15:15:56.644Z,1.23
2022-08-30T15:18:24.329Z,0.97
2022-08-30T15:20:50.826Z,1.10
2022-08-30T15:23:17.306Z,1.07
2022-08-30T15:25:49.328Z,0.90
2022-08-30T15:28:16.849Z,1.07
2022-08-30T15:30:44.331Z,1.57
2022-08-30T15:33:10.877Z,0.87
2022-08-30T15:35:40.371Z,1.30
2022-08-30T15:38:06.877Z,0.90
2022-08-30T15:40:35.168Z,0.93
2022-08-30T15:43:04.919Z,1.10
2022-08-30T15:45:31.605Z,1.20
2022-08-30T15:48:01.426Z,1.10
2022-08-30T15:50:28.773Z,1.00
2022-08-30T15:52:56.927Z,1.00
2022-08-30T15:55:23.553Z,0.90
2022-08-30T15:57:50.290Z,0.80
2022-08-30T16:00:17.443Z,0.70
2022-08-30T16:02:48.075Z,1.10
2022-08-30T16:05:15.265Z,1.03
2022-08-30T16:07:41.698Z,1.00
2022-08-30T16:10:09.150Z,0.80
2022-08-30T16:12:35.580Z,1.23
2022-08-30T16:15:01.976Z,0.90
2022-08-30T16:17:28.467Z,0.90
2022-08-30T16:19:58.873Z,1.30
2022-08-30T16:22:26.479Z,0.90
2022-08-30T16:24:53.013Z,1.20
2022-08-30T16:27:19.497Z,1.00
2022-08-30T16:29:47.945Z,1.20
2022-08-30T16:32:17.271Z,0.70
2022-08-30T16:34:43.679Z,1.00
2022-08-30T16:37:10.089Z,1.10
2022-08-30T16:39:36.861Z,0.93
2022-08-30T16:42:03.436Z,0.97
2022-08-30T16:44:33.222Z,1.20
2022-08-30T16:47:00.736Z,1.00
2022-08-30T16:49:27.503Z,1.13
2022-08-30T16:51:54.451Z,1.00
2022-08-30T16:54:21.680Z,1.10
2022-08-30T16:56:48.234Z,1.00
2022-08-30T16:59:16.736Z,0.80
2022-08-30T17:01:44.893Z,1.10
2022-08-30T17:04:12.927Z,1.00
2022-08-30T17:06:43.362Z,1.30
2022-08-30T17:09:10.850Z,0.93
2022-08-30T17:11:40.279Z,1.03
2022-08-30T17:14:07.260Z,0.90
2022-08-30T17:16:35.818Z,1.17
2022-08-30T17:19:06.187Z,1.20
2022-08-30T17:21:33.175Z,0.80
2022-08-30T17:24:01.627Z,1.10
2022-08-30T17:26:33.751Z,0.80
2022-08-30T17:29:00.200Z,1.10
2022-08-30T17:31:29.422Z,1.10
2022-08-30T17:34:01.192Z,1.00
2022-08-30T17:36:36.519Z,0.63
2022-08-30T17:41:54.803Z,0.90
2022-08-30T17:44:25.537Z,1.00
2022-08-30T17:46:53.046Z,1.30
2022-08-30T17:49:19.692Z,1.10
2022-08-30T17:51:47.760Z,1.00
2022-08-30T17:54:14.910Z,1.20
2022-08-30T17:56:41.997Z,0.93
2022-08-30T17:59:11.076Z,1.00
2022-08-30T18:01:38.345Z,0.73
2022-08-30T18:06:53.952Z,0.90
2022-08-30T18:09:21.587Z,0.97
2022-08-30T18:11:49.865Z,1.30
2022-08-30T18:14:17.045Z,1.43
2022-08-30T18:16:53.118Z,1.10
2022-08-30T18:19:21.350Z,1.23
2022-08-30T18:21:47.884Z,1.10
2022-08-30T18:24:16.256Z,1.10
2022-08-30T18:26:43.201Z,1.17
2022-08-30T18:29:10.902Z,1.23
2022-08-30T18:31:37.509Z,1.00
2022-08-30T18:34:04.056Z,1.00
2022-08-30T18:36:30.538Z,1.20
2022-08-30T18:38:58.269Z,0.93
2022-08-30T18:41:26.112Z,1.13
2022-08-30T18:44:10.929Z,1.20
2022-08-30T18:46:39.480Z,1.20
2022-08-30T18:49:22.480Z,1.20
2022-08-30T18:51:49.993Z,1.23
2022-08-30T18:54:16.522Z,1.50
2022-08-30T18:56:45.065Z,1.33
2022-08-30T18:59:11.824Z,1.13
2022-08-30T19:01:39.015Z,1.47
2022-08-30T19:04:06.831Z,0.90
2022-08-30T19:06:34.599Z,1.13
2022-08-30T19:09:01.404Z,1.20
2022-08-30T19:11:28.068Z,0.90
2022-08-30T19:13:54.942Z,1.03
2022-08-30T19:16:21.895Z,1.10
2022-08-30T19:18:48.885Z,0.90
2022-08-30T19:21:15.461Z,1.10
2022-08-30T19:23:43.426Z,1.10
2022-08-30T19:26:10.811Z,1.30
2022-08-30T19:28:37.571Z,1.07
2022-08-30T19:31:04.546Z,1.00
2022-08-30T19:33:33.272Z,1.43
2022-08-30T19:35:59.998Z,1.40
2022-08-30T19:38:26.538Z,1.20
2022-08-30T19:40:58.166Z,1.40
2022-08-30T19:43:24.928Z,1.30
2022-08-30T19:45:55.619Z,1.30
2022-08-30T19:48:24.130Z,1.20
2022-08-30T19:50:56.029Z,1.60
2022-08-30T19:53:23.080Z,1.30
2022-08-30T19:55:50.120Z,1.23
2022-08-30T19:58:17.044Z,1.20
2022-08-30T20:03:33.436Z,1.60
2022-08-30T20:05:59.850Z,1.00
2022-08-30T20:08:27.566Z,1.20
2022-08-30T20:10:54.052Z,1.83
2022-08-30T20:13:23.879Z,1.70
2022-08-30T20:15:56.317Z,1.70
2022-08-30T20:18:25.954Z,1.70
2022-08-30T20:20:53.379Z,1.57
2022-08-30T20:23:21.781Z,2.00
2022-08-30T20:24:24.886Z,0.80
2022-08-30T20:24:26.741Z,1.30
2022-08-30T20:25:54.719Z,1.60
2022-08-30T20:28:21.749Z,1.80
2022-08-30T20:30:49.375Z,1.97
2022-08-30T20:33:16.219Z,1.80
2022-08-30T20:35:48.831Z,2.07
2022-08-30T20:38:21.608Z,2.37
2022-08-30T20:40:51.277Z,1.80
2022-08-30T20:43:20.001Z,2.00
2022-08-30T20:45:46.846Z,2.50
2022-08-30T20:48:13.675Z,2.40
2022-08-30T20:50:41.350Z,2.17
2022-08-30T20:53:07.903Z,2.80
2022-08-30T20:55:34.505Z,2.57
2022-08-30T20:58:00.942Z,1.90
2022-08-30T21:00:27.696Z,2.10
2022-08-30T21:02:54.233Z,2.47
2022-08-30T21:05:20.665Z,2.27
2022-08-30T21:07:47.218Z,2.37
2022-08-30T21:10:14.142Z,2.40
2022-08-30T21:12:40.562Z,2.33
2022-08-30T21:15:34.113Z,2.40
2022-08-30T21:17:54.508Z,2.57
2022-08-30T21:20:21.000Z,2.60
2022-08-30T21:22:47.600Z,2.47
2022-08-30T21:25:15.539Z,3.17
2022-08-30T21:27:43.658Z,2.60
2022-08-30T21:30:12.843Z,2.27
2022-08-30T21:32:39.395Z,2.30
2022-08-30T21:35:25.283Z,2.13
2022-08-30T21:37:53.227Z,1.97
2022-08-30T21:40:20.120Z,2.30
2022-08-30T21:42:46.631Z,2.50
2022-08-30T21:45:13.742Z,2.20
2022-08-30T21:47:40.283Z,1.93
2022-08-30T21:50:06.892Z,2.20
2022-08-30T21:52:34.458Z,2.10
2022-08-30T21:55:00.963Z,2.30
2022-08-30T21:57:29.393Z,2.10
2022-08-30T21:59:55.810Z,1.93
2022-08-30T22:02:23.401Z,1.97
2022-08-30T22:04:49.908Z,1.70
2022-08-30T22:07:16.463Z,1.90
2022-08-30T22:09:45.573Z,1.90
2022-08-30T22:12:11.993Z,1.97
2022-08-30T22:14:38.463Z,1.90
2022-08-30T22:17:05.394Z,1.90
2022-08-30T22:19:33.755Z,1.57
2022-08-30T22:22:01.753Z,1.60
2022-08-30T22:24:32.402Z,1.63
2022-08-30T22:26:59.633Z,1.40
2022-08-30T22:29:26.084Z,1.63
2022-08-30T22:31:52.643Z,1.50
2022-08-30T22:34:19.102Z,1.70
2022-08-30T22:36:45.807Z,1.43
2022-08-30T22:39:13.300Z,1.40
2022-08-30T22:41:41.354Z,1.47
2022-08-30T22:44:07.758Z,1.70
2022-08-30T22:46:35.934Z,1.60
2022-08-30T22:49:05.280Z,1.60
2022-08-30T22:51:33.005Z,1.67
2022-08-30T22:54:01.188Z,1.30
2022-08-30T22:56:28.641Z,1.60
2022-08-30T22:58:55.969Z,1.80
2022-08-30T23:01:36.758Z,2.00
2022-08-30T23:04:05.666Z,1.60
2022-08-30T23:06:32.771Z,1.70
2022-08-30T23:08:59.669Z,1.50
2022-08-30T23:11:26.799Z,1.80
2022-08-30T23:13:53.569Z,1.30
2022-08-30T23:16:20.697Z,1.50
2022-08-30T23:18:47.995Z,1.23
2022-08-30T23:21:18.634Z,1.40
2022-08-30T23:24:03.771Z,1.37
2022-08-30T23:26:48.765Z,1.17
2022-08-30T23:29:33.492Z,1.43
2022-08-30T23:32:18.973Z,1.60
2022-08-30T23:35:03.803Z,1.60
2022-08-30T23:37:53.028Z,1.40
2022-08-30T23:40:39.803Z,1.27
2022-08-30T23:43:25.981Z,1.30
2022-08-30T23:46:11.249Z,1.23
2022-08-30T23:49:04.400Z,1.40
2022-08-30T23:51:49.263Z,1.70
2022-08-30T23:54:34.124Z,1.47
2022-08-30T23:57:19.121Z,1.50
